Terminal Aerodrome Forecast
Issued by NWS

Home | Current Version | Previous Version | Graphics & Text | Print | Product List | Glossary On
Versions: 1 2 3 4 5 6 7 8 9 10 11 12 13 14 15 16 17
920
FTUS43 KIWX 151136
TAFSBN
TAF
KSBN 151136Z 1512/1612 23016G26KT P6SM -RA SCT015 BKN110
      TEMPO 1512/1514 5SM -RA BR BKN015
     FM151400 27018G28KT P6SM OVC015
      TEMPO 1514/1516 -SHRA BKN009
     FM151700 30018G28KT P6SM OVC020
     FM160000 33010KT P6SM BKN040=

USA.gov is the U.S. government's official web portal to all federal, state and local government web resources and services.